Time;durP1;ratioP1;P1;durP2;ratioP2;P2;SDS_P1;SDS_P2;PMS_P1;PMS_P2;Temp;Humidity;BMP_temperature;BMP_pressure;BME280_temperature;BME280_humidity;BME280_pressure;Samples;Min_cycle;Max_cycle;Signal;HPM_P1;HPM_P2
2021/03/10 00:00:57;;;;;;;7.53;3.67;;;3.90;99.90;;;;;;4983818;28;20033;-63
2021/03/10 00:03:22;;;;;;;12.10;3.80;;;4.00;99.90;;;;;;4983648;28;20042;-63
2021/03/10 00:05:48;;;;;;;8.18;3.33;;;4.10;99.90;;;;;;4982605;28;20033;-63
2021/03/10 00:08:13;;;;;;;6.82;3.40;;;4.10;99.90;;;;;;4986309;28;20026;-63
2021/03/10 00:10:39;;;;;;;8.05;3.53;;;4.10;99.90;;;;;;4995182;28;20030;-64
2021/03/10 00:13:04;;;;;;;6.65;3.30;;;4.20;99.90;;;;;;5000053;28;20434;-64
2021/03/10 00:15:30;;;;;;;10.98;3.72;;;4.30;99.90;;;;;;4999214;28;20078;-64
2021/03/10 00:17:56;;;;;;;7.63;3.97;;;4.20;99.90;;;;;;4978866;28;20508;-63
2021/03/10 00:20:22;;;;;;;6.88;3.38;;;4.30;99.90;;;;;;4987809;28;20114;-64
2021/03/10 00:22:48;;;;;;;11.88;3.85;;;4.30;99.90;;;;;;4984911;28;20042;-63
2021/03/10 00:25:14;;;;;;;12.88;5.03;;;4.30;99.90;;;;;;4985840;28;20106;-63
2021/03/10 00:27:40;;;;;;;9.50;4.03;;;4.20;99.90;;;;;;4985942;28;20555;-63
2021/03/10 00:30:10;;;;;;;10.60;4.57;;;4.10;99.90;;;;;;4984351;28;20387;-63
2021/03/10 00:32:37;;;;;;;8.23;3.43;;;4.10;99.90;;;;;;4982752;28;20034;-64
2021/03/10 00:35:05;;;;;;;9.88;4.55;;;4.10;99.90;;;;;;4984586;28;20054;-63
2021/03/10 00:37:30;;;;;;;9.30;4.47;;;4.10;99.90;;;;;;4987147;28;20046;-63
2021/03/10 00:39:56;;;;;;;12.35;5.32;;;4.00;99.90;;;;;;5007220;28;20034;-63
2021/03/10 00:42:22;;;;;;;9.98;4.45;;;4.00;99.90;;;;;;4981266;28;20113;-63
2021/03/10 00:44:47;;;;;;;13.40;4.97;;;4.00;99.90;;;;;;4989144;28;20503;-64
2021/03/10 00:47:14;;;;;;;13.43;5.63;;;3.90;99.90;;;;;;4987010;28;20037;-63
2021/03/10 00:49:40;;;;;;;15.40;5.47;;;3.90;99.90;;;;;;4979592;28;20110;-63
2021/03/10 00:52:06;;;;;;;10.43;5.07;;;4.00;99.90;;;;;;4994520;28;20121;-63
2021/03/10 00:54:33;;;;;;;11.13;4.78;;;4.00;99.90;;;;;;5021004;28;20100;-63
2021/03/10 00:56:58;;;;;;;11.10;5.13;;;4.00;99.90;;;;;;4982711;28;20657;-63
2021/03/10 00:59:24;;;;;;;13.98;5.25;;;4.00;99.90;;;;;;4981871;28;20076;-63
2021/03/10 01:01:50;;;;;;;12.75;4.75;;;4.00;99.90;;;;;;4979511;28;20035;-63
2021/03/10 01:04:15;;;;;;;13.43;4.95;;;4.10;99.90;;;;;;4981796;28;20121;-64
2021/03/10 01:06:41;;;;;;;11.23;5.40;;;4.10;99.90;;;;;;4979744;28;20066;-64
2021/03/10 01:09:07;;;;;;;11.25;4.75;;;4.10;99.90;;;;;;4976510;28;20035;-63
2021/03/10 01:11:33;;;;;;;10.10;4.95;;;4.20;99.90;;;;;;4980602;28;20034;-63
2021/03/10 01:13:59;;;;;;;9.20;4.40;;;4.20;99.90;;;;;;4978443;28;20038;-63
2021/03/10 01:16:24;;;;;;;14.13;4.82;;;4.30;99.90;;;;;;4975566;28;20046;-64
2021/03/10 01:18:50;;;;;;;13.40;4.78;;;4.30;99.90;;;;;;4976403;28;20022;-63
2021/03/10 01:21:16;;;;;;;9.48;5.00;;;4.30;99.90;;;;;;4980252;28;20118;-63
2021/03/10 01:23:42;;;;;;;11.68;5.45;;;4.40;99.90;;;;;;4974269;28;20037;-63
2021/03/10 01:26:07;;;;;;;12.60;4.63;;;4.50;99.90;;;;;;4980261;28;20045;-63
2021/03/10 01:28:33;;;;;;;12.18;5.40;;;4.50;99.90;;;;;;4977397;28;20037;-63
2021/03/10 01:30:58;;;;;;;17.98;6.28;;;4.50;99.90;;;;;;4977978;28;20039;-63
2021/03/10 01:33:24;;;;;;;11.10;4.68;;;4.60;99.90;;;;;;4975830;28;20083;-64
2021/03/10 01:35:50;;;;;;;13.38;5.75;;;4.60;99.90;;;;;;4978458;28;20062;-64
2021/03/10 01:38:15;;;;;;;12.88;5.38;;;4.70;99.90;;;;;;4976109;28;20027;-64
2021/03/10 01:40:41;;;;;;;10.30;4.70;;;4.60;99.90;;;;;;4981218;28;20495;-64
2021/03/10 01:43:07;;;;;;;15.40;5.93;;;4.70;99.90;;;;;;4988093;28;20041;-64
2021/03/10 01:45:34;;;;;;;16.25;5.40;;;4.70;99.90;;;;;;4990721;28;20114;-64
2021/03/10 01:48:02;;;;;;;11.93;5.22;;;4.70;99.90;;;;;;4983250;28;20057;-65
2021/03/10 01:50:28;;;;;;;10.82;5.53;;;4.70;99.90;;;;;;4982468;28;20030;-64
2021/03/10 01:52:55;;;;;;;12.93;5.07;;;4.80;99.90;;;;;;4978578;28;20131;-64
2021/03/10 01:55:22;;;;;;;10.38;5.30;;;4.70;99.90;;;;;;4981770;28;20064;-64
2021/03/10 01:57:47;;;;;;;11.48;3.85;;;4.80;99.90;;;;;;4985324;28;20046;-64
2021/03/10 02:00:14;;;;;;;12.82;5.13;;;4.80;99.90;;;;;;4975704;28;20039;-63
2021/03/10 02:02:40;;;;;;;9.77;4.93;;;4.80;99.90;;;;;;4974942;28;20046;-63
2021/03/10 02:05:08;;;;;;;14.45;5.07;;;4.80;99.90;;;;;;4974527;28;20731;-64
2021/03/10 02:08:10;;;;;;;12.10;5.90;;;4.90;99.90;;;;;;4981234;28;20069;-64
2021/03/10 02:11:07;;;;;;;11.27;5.07;;;4.80;99.90;;;;;;5009256;28;20148;-67
2021/03/10 02:13:45;;;;;;;9.93;4.47;;;4.90;99.90;;;;;;4979121;28;20121;-64
2021/03/10 02:16:29;;;;;;;14.57;5.47;;;4.90;99.90;;;;;;4974599;28;20101;-64
2021/03/10 02:19:17;;;;;;;16.33;5.50;;;4.90;99.90;;;;;;4978418;28;20042;-64
2021/03/10 02:22:02;;;;;;;14.27;5.78;;;4.90;99.90;;;;;;4977857;28;20142;-64
2021/03/10 02:25:03;;;;;;;17.48;5.15;;;4.90;99.90;;;;;;4974694;28;20521;-64
2021/03/10 02:27:38;;;;;;;;;;;4.90;99.90;;;;;;4960277;28;20534;-63
2021/03/10 02:30:14;;;;;;;13.55;5.95;;;5.00;99.90;;;;;;4975235;28;20475;-64
2021/03/10 02:32:46;;;;;;;17.20;6.07;;;5.00;99.90;;;;;;4981206;28;20456;-64
2021/03/10 02:35:12;;;;;;;9.98;5.07;;;5.00;99.90;;;;;;4978879;28;20026;-64
2021/03/10 02:37:43;;;;;;;10.88;5.28;;;5.00;99.90;;;;;;4977057;28;20027;-65
2021/03/10 02:40:10;;;;;;;11.98;5.65;;;5.00;99.90;;;;;;4974241;28;20072;-64
2021/03/10 02:42:38;;;;;;;12.43;6.53;;;4.90;99.90;;;;;;4976029;28;20039;-65
2021/03/10 02:45:05;;;;;;;12.27;6.45;;;4.90;99.90;;;;;;4973543;28;20043;-64
2021/03/10 02:47:31;;;;;;;15.65;6.70;;;4.90;99.90;;;;;;4975890;28;20039;-64
2021/03/10 02:49:57;;;;;;;16.58;6.82;;;4.80;99.90;;;;;;4974697;28;20046;-65
2021/03/10 02:52:25;;;;;;;17.55;7.30;;;4.80;99.90;;;;;;4976901;28;20055;-64
2021/03/10 02:54:52;;;;;;;12.75;6.15;;;4.70;99.90;;;;;;4973947;28;20555;-64
2021/03/10 02:57:18;;;;;;;15.32;7.85;;;4.70;99.90;;;;;;4981501;28;20033;-65
2021/03/10 02:59:48;;;;;;;22.63;7.72;;;4.60;99.90;;;;;;4980426;28;20439;-65
2021/03/10 03:02:14;;;;;;;16.50;7.88;;;4.70;99.90;;;;;;4981539;28;20479;-64
2021/03/10 03:04:40;;;;;;;16.52;7.88;;;4.70;99.90;;;;;;4974544;28;20056;-64
2021/03/10 03:07:06;;;;;;;18.02;8.63;;;4.70;99.90;;;;;;4976303;28;20063;-65
2021/03/10 03:09:33;;;;;;;21.33;7.30;;;4.70;99.90;;;;;;4975357;28;20066;-65
2021/03/10 03:11:59;;;;;;;18.15;7.63;;;4.70;99.90;;;;;;4981168;28;20436;-65
2021/03/10 03:14:28;;;;;;;21.67;8.38;;;4.70;99.90;;;;;;4975383;28;20133;-64
2021/03/10 03:16:54;;;;;;;16.58;7.10;;;4.70;99.90;;;;;;4973854;28;20035;-64
2021/03/10 03:19:19;;;;;;;21.17;8.90;;;4.70;99.90;;;;;;4977155;28;20034;-62
2021/03/10 03:21:45;;;;;;;16.77;8.05;;;4.70;99.90;;;;;;4977264;28;20038;-64
2021/03/10 03:24:11;;;;;;;25.48;9.90;;;4.60;99.90;;;;;;4974199;28;20038;-65
2021/03/10 03:26:38;;;;;;;20.65;9.02;;;4.70;99.90;;;;;;4979550;28;20740;-65
2021/03/10 03:29:04;;;;;;;20.30;9.60;;;4.60;99.90;;;;;;4973873;28;20035;-65
2021/03/10 03:31:31;;;;;;;19.75;9.30;;;4.60;99.90;;;;;;4975418;28;20024;-65
2021/03/10 03:33:57;;;;;;;25.50;9.88;;;4.60;99.90;;;;;;4982692;28;20037;-62
2021/03/10 03:36:23;;;;;;;21.40;9.40;;;4.50;99.90;;;;;;4979719;28;20040;-65
2021/03/10 03:38:49;;;;;;;21.65;9.43;;;4.50;99.90;;;;;;4976687;28;20034;-65
2021/03/10 03:41:15;;;;;;;21.30;8.82;;;4.50;99.90;;;;;;4980161;28;20566;-64
2021/03/10 03:43:41;;;;;;;18.10;7.80;;;4.50;99.90;;;;;;4975792;28;20117;-65
2021/03/10 03:46:06;;;;;;;17.48;7.88;;;4.50;99.90;;;;;;4977252;28;20038;-65
2021/03/10 03:48:32;;;;;;;30.42;9.27;;;4.60;99.90;;;;;;4978675;28;20125;-67
2021/03/10 03:50:58;;;;;;;18.92;8.45;;;4.50;99.90;;;;;;4979922;28;20034;-65
2021/03/10 03:53:23;;;;;;;23.10;7.70;;;4.50;99.90;;;;;;4983967;28;20440;-65
2021/03/10 03:55:49;;;;;;;22.50;8.20;;;4.50;99.90;;;;;;4991115;28;20388;-69
2021/03/10 03:58:14;;;;;;;16.52;7.35;;;4.50;99.90;;;;;;4993782;28;20031;-67
2021/03/10 04:00:40;;;;;;;17.20;7.80;;;4.50;99.90;;;;;;4989500;28;20051;-63
2021/03/10 04:03:06;;;;;;;18.45;7.53;;;4.50;99.90;;;;;;4979824;28;20031;-65
2021/03/10 04:05:31;;;;;;;20.58;8.82;;;4.50;99.90;;;;;;4977696;28;20042;-65
2021/03/10 04:08:00;;;;;;;22.77;8.63;;;4.60;99.90;;;;;;4977777;28;20112;-65
2021/03/10 04:10:34;;;;;;;20.20;8.80;;;4.50;99.90;;;;;;4978488;28;20034;-65
2021/03/10 04:13:00;;;;;;;29.42;9.82;;;4.60;99.90;;;;;;4976502;28;20031;-65
2021/03/10 04:15:27;;;;;;;27.15;10.07;;;4.60;99.90;;;;;;4978346;28;20081;-64
2021/03/10 04:17:53;;;;;;;22.92;10.20;;;4.60;99.90;;;;;;4976911;28;20445;-65
2021/03/10 04:20:21;;;;;;;24.38;10.68;;;4.60;99.90;;;;;;4979079;28;20530;-65
2021/03/10 04:22:47;;;;;;;24.35;10.40;;;4.60;99.90;;;;;;4975954;28;20050;-62
2021/03/10 04:25:14;;;;;;;29.23;11.98;;;4.60;99.90;;;;;;4979537;28;20480;-63
2021/03/10 04:27:40;;;;;;;34.10;11.15;;;4.60;99.90;;;;;;4979117;28;20030;-64
2021/03/10 04:30:09;;;;;;;26.25;11.23;;;4.60;99.90;;;;;;4979005;28;20038;-64
2021/03/10 04:32:34;;;;;;;30.65;11.85;;;4.60;99.90;;;;;;4979584;28;20042;-64
2021/03/10 04:35:00;;;;;;;26.17;10.88;;;4.60;99.90;;;;;;4975471;28;20105;-64
2021/03/10 04:37:26;;;;;;;30.05;12.63;;;4.60;99.90;;;;;;4977476;28;20062;-64
2021/03/10 04:39:52;;;;;;;32.88;12.15;;;4.50;99.90;;;;;;4977945;28;20587;-63
2021/03/10 04:42:17;;;;;;;27.25;11.75;;;4.50;99.90;;;;;;4976335;28;20030;-63
2021/03/10 04:44:43;;;;;;;34.28;13.00;;;4.50;99.90;;;;;;4979512;28;20022;-64
2021/03/10 04:47:08;;;;;;;37.75;14.02;;;4.50;99.90;;;;;;4978667;28;20398;-64
2021/03/10 04:49:34;;;;;;;37.13;13.23;;;4.60;99.90;;;;;;4976607;28;20495;-65
2021/03/10 04:52:00;;;;;;;33.33;13.27;;;4.60;99.90;;;;;;4977237;28;20038;-62
2021/03/10 04:54:25;;;;;;;38.55;14.18;;;4.60;99.90;;;;;;4977436;28;20117;-62
2021/03/10 04:56:51;;;;;;;43.85;14.13;;;4.60;99.90;;;;;;4975945;28;20119;-64
2021/03/10 04:59:16;;;;;;;38.42;14.43;;;4.60;99.90;;;;;;4978760;28;20041;-64
2021/03/10 05:01:42;;;;;;;34.60;14.70;;;4.60;99.90;;;;;;4975936;28;20437;-63
2021/03/10 05:04:08;;;;;;;40.67;14.63;;;4.60;99.90;;;;;;4978422;28;20512;-65
2021/03/10 05:06:34;;;;;;;37.60;14.80;;;4.50;99.90;;;;;;4976544;28;20042;-64
2021/03/10 05:08:59;;;;;;;41.00;14.30;;;4.50;99.90;;;;;;4976306;28;20031;-64
2021/03/10 05:11:25;;;;;;;40.63;14.23;;;4.50;99.90;;;;;;4979231;28;20041;-64
2021/03/10 05:13:50;;;;;;;34.42;14.23;;;4.50;99.90;;;;;;4975408;28;20526;-65
2021/03/10 05:16:16;;;;;;;39.30;15.75;;;4.40;99.90;;;;;;4978823;28;20035;-64
2021/03/10 05:18:42;;;;;;;41.22;15.32;;;4.40;99.90;;;;;;4976691;28;20888;-63
2021/03/10 05:21:08;;;;;;;39.67;15.82;;;4.40;99.90;;;;;;4977842;28;20050;-64
2021/03/10 05:23:34;;;;;;;40.15;15.85;;;4.40;99.90;;;;;;4985203;28;20376;-64
2021/03/10 05:25:59;;;;;;;36.22;15.65;;;4.40;99.90;;;;;;4985225;28;20042;-64
2021/03/10 05:28:25;;;;;;;41.25;15.95;;;4.40;99.90;;;;;;4983324;28;20034;-62
2021/03/10 05:30:51;;;;;;;41.28;16.88;;;4.50;99.90;;;;;;4987404;28;20038;-64
2021/03/10 05:33:17;;;;;;;43.17;17.50;;;4.40;99.90;;;;;;4974961;28;20038;-64
2021/03/10 05:35:42;;;;;;;41.08;16.65;;;4.40;99.90;;;;;;4978790;28;20430;-64
2021/03/10 05:38:08;;;;;;;40.90;16.45;;;4.40;99.90;;;;;;4974763;28;20031;-64
2021/03/10 05:40:34;;;;;;;46.20;17.33;;;4.40;99.90;;;;;;4982660;28;20776;-66
2021/03/10 05:43:01;;;;;;;40.97;17.58;;;4.40;99.90;;;;;;4978715;28;20054;-63
2021/03/10 05:45:26;;;;;;;42.58;17.13;;;4.40;99.90;;;;;;4978418;28;20041;-64
2021/03/10 05:47:52;;;;;;;44.80;18.00;;;4.40;99.90;;;;;;4977011;28;20437;-64
2021/03/10 05:50:18;;;;;;;50.47;17.95;;;4.40;99.90;;;;;;4977330;28;20136;-64
2021/03/10 05:52:48;;;;;;;46.08;16.85;;;4.40;99.90;;;;;;4978328;28;20034;-64
2021/03/10 05:55:15;;;;;;;34.13;13.60;;;4.40;99.90;;;;;;4977169;28;20068;-64
2021/03/10 05:57:42;;;;;;;41.65;18.48;;;4.40;99.90;;;;;;4975042;28;20031;-63
2021/03/10 06:00:12;;;;;;;48.90;17.80;;;4.40;99.90;;;;;;4976817;28;20092;-64
2021/03/10 06:02:38;;;;;;;40.63;18.58;;;4.40;99.90;;;;;;4978964;28;20034;-63
2021/03/10 06:05:04;;;;;;;44.67;18.05;;;4.40;99.90;;;;;;4974894;28;20446;-69
2021/03/10 06:07:30;;;;;;;40.40;17.38;;;4.40;99.90;;;;;;4976079;28;20109;-63
2021/03/10 06:09:58;;;;;;;42.35;18.35;;;4.40;99.90;;;;;;4975920;28;20040;-63
2021/03/10 06:12:24;;;;;;;43.55;18.20;;;4.40;99.90;;;;;;4982946;28;20034;-63
2021/03/10 06:14:59;;;;;;;39.67;17.35;;;4.40;99.90;;;;;;4975801;28;20092;-64
2021/03/10 06:17:25;;;;;;;45.45;18.80;;;4.40;99.90;;;;;;4975338;28;20182;-64
2021/03/10 06:19:51;;;;;;;48.95;18.90;;;4.40;99.90;;;;;;4978377;28;20026;-63
2021/03/10 06:22:18;;;;;;;47.13;18.58;;;4.50;99.90;;;;;;4974864;28;21158;-63
2021/03/10 06:24:44;;;;;;;46.13;18.55;;;4.50;99.90;;;;;;4977166;28;20039;-63
2021/03/10 06:27:10;;;;;;;44.80;19.20;;;4.40;99.90;;;;;;4977950;28;20034;-64
2021/03/10 06:29:36;;;;;;;47.45;19.67;;;4.50;99.90;;;;;;4977740;28;20046;-64
2021/03/10 06:32:03;;;;;;;48.95;18.33;;;4.50;99.90;;;;;;4980131;28;20042;-64
2021/03/10 06:34:29;;;;;;;43.65;18.25;;;4.50;99.90;;;;;;4980420;28;20045;-64
2021/03/10 06:36:54;;;;;;;47.22;17.85;;;4.50;99.90;;;;;;4984331;28;20034;-64
2021/03/10 06:39:26;;;;;;;45.28;18.73;;;4.50;99.90;;;;;;4979187;28;20058;-64
2021/03/10 06:41:52;;;;;;;45.15;18.58;;;4.50;99.90;;;;;;4981912;28;20112;-64
2021/03/10 06:44:20;;;;;;;53.38;19.10;;;4.50;99.90;;;;;;4973957;28;20038;-64
2021/03/10 06:47:04;;;;;;;38.42;17.80;;;4.50;99.90;;;;;;4976350;28;20487;-64
2021/03/10 06:49:31;;;;;;;47.40;18.48;;;4.60;99.90;;;;;;4977215;28;20099;-62
2021/03/10 06:51:58;;;;;;;39.67;17.35;;;4.60;99.90;;;;;;4975067;28;20058;-65
2021/03/10 06:54:28;;;;;;;41.42;16.90;;;4.60;99.90;;;;;;4974863;28;20054;-63
2021/03/10 06:57:14;;;;;;;38.33;16.37;;;4.60;99.90;;;;;;4973865;28;20034;-64
2021/03/10 06:59:41;;;;;;;39.63;17.20;;;4.70;99.90;;;;;;4977895;28;20057;-64
2021/03/10 07:02:28;;;;;;;42.60;18.52;;;4.70;99.90;;;;;;4972864;28;20035;-64
2021/03/10 07:04:58;;;;;;;42.42;18.88;;;4.70;99.90;;;;;;4977975;28;20030;-64
2021/03/10 07:07:25;;;;;;;44.72;18.15;;;4.70;99.90;;;;;;4973296;28;20076;-63
2021/03/10 07:09:51;;;;;;;36.10;16.15;;;4.70;99.90;;;;;;4980342;28;20050;-65
2021/03/10 07:12:19;;;;;;;46.85;18.00;;;4.70;99.90;;;;;;4979558;28;20767;-64
2021/03/10 07:14:46;;;;;;;35.42;16.08;;;4.80;99.90;;;;;;4979190;28;20035;-64
2021/03/10 07:17:13;;;;;;;40.70;16.40;;;4.80;99.90;;;;;;4978307;28;20027;-63
2021/03/10 07:19:39;;;;;;;42.80;16.27;;;4.90;99.90;;;;;;4980078;28;20026;-64
2021/03/10 07:22:30;;;;;;;38.13;17.63;;;4.90;99.90;;;;;;4976340;28;20116;-64
2021/03/10 07:25:01;;;;;;;34.97;15.68;;;4.90;99.90;;;;;;4981267;28;20102;-64
2021/03/10 07:27:36;;;;;;;37.97;16.60;;;4.90;99.90;;;;;;4978605;28;20035;-64
2021/03/10 07:30:03;;;;;;;42.33;16.15;;;4.90;99.90;;;;;;4979505;28;20061;-64
2021/03/10 07:32:29;;;;;;;40.88;16.48;;;4.90;99.90;;;;;;4980179;28;20444;-65
2021/03/10 07:35:06;;;;;;;38.55;16.25;;;5.00;99.90;;;;;;4984624;28;20117;-64
2021/03/10 07:37:32;;;;;;;33.90;14.60;;;5.00;99.90;;;;;;4979761;28;20073;-65
2021/03/10 07:40:14;;;;;;;42.38;15.32;;;5.10;99.90;;;;;;4980333;28;20023;-65
2021/03/10 07:42:54;;;;;;;39.83;16.33;;;5.10;99.90;;;;;;4976119;28;20039;-64
2021/03/10 07:45:21;;;;;;;41.77;17.50;;;5.10;99.90;;;;;;4985303;28;20050;-64
2021/03/10 07:48:05;;;;;;;36.10;17.23;;;5.20;99.90;;;;;;4998515;28;20056;-62
2021/03/10 07:50:45;;;;;;;33.75;14.68;;;5.20;99.90;;;;;;4997645;28;20507;-63
2021/03/10 07:53:11;;;;;;;40.72;15.15;;;5.20;99.90;;;;;;4991322;28;20206;-64
2021/03/10 07:55:48;;;;;;;36.35;15.63;;;5.30;99.90;;;;;;4976773;28;20058;-65
2021/03/10 07:58:30;;;;;;;40.95;15.75;;;5.30;99.90;;;;;;4977802;28;20027;-63
2021/03/10 08:00:56;;;;;;;36.80;15.70;;;5.30;99.90;;;;;;4978641;28;20046;-64
2021/03/10 08:03:30;;;;;;;40.97;15.35;;;5.50;99.90;;;;;;4979832;28;20575;-63
2021/03/10 08:06:03;;;;;;;33.58;15.82;;;5.50;99.90;;;;;;4983680;28;20634;-64
2021/03/10 08:08:37;;;;;;;31.10;15.00;;;5.50;99.90;;;;;;4982955;28;20058;-63
2021/03/10 08:11:07;;;;;;;39.65;14.30;;;5.60;99.90;;;;;;4984866;28;20034;-64
2021/03/10 08:13:32;;;;;;;36.03;15.40;;;5.70;99.90;;;;;;4984551;28;20042;-64
2021/03/10 08:16:02;;;;;;;37.03;15.85;;;5.70;99.90;;;;;;4984880;28;20042;-63
2021/03/10 08:18:28;;;;;;;25.65;10.55;;;5.70;99.90;;;;;;4983845;28;20122;-63
2021/03/10 08:20:54;;;;;;;33.22;14.50;;;5.80;99.90;;;;;;4985030;28;20121;-63
2021/03/10 08:23:20;;;;;;;38.50;15.75;;;5.80;99.90;;;;;;4985471;28;20122;-63
2021/03/10 08:25:51;;;;;;;32.00;13.98;;;6.00;99.90;;;;;;4985226;28;20437;-64
2021/03/10 08:28:17;;;;;;;37.13;15.00;;;6.00;99.90;;;;;;4985705;28;20026;-64
2021/03/10 08:30:43;;;;;;;38.97;15.38;;;6.00;99.90;;;;;;4986773;28;20083;-63
2021/03/10 08:33:10;;;;;;;32.97;15.27;;;6.10;99.90;;;;;;4985613;28;20080;-64
2021/03/10 08:35:36;;;;;;;36.08;14.98;;;6.10;99.90;;;;;;4985310;28;20035;-64
2021/03/10 08:38:04;;;;;;;29.65;14.80;;;6.10;99.90;;;;;;4985780;28;20023;-63
2021/03/10 08:40:32;;;;;;;33.42;14.30;;;6.10;99.90;;;;;;4985494;28;20037;-64
2021/03/10 08:43:02;;;;;;;33.75;15.13;;;6.20;99.90;;;;;;4984775;28;20023;-63
2021/03/10 08:45:35;;;;;;;36.92;15.50;;;6.30;99.90;;;;;;4984683;28;20038;-63
2021/03/10 08:48:06;;;;;;;33.58;14.30;;;6.30;99.90;;;;;;4986126;28;20031;-63
2021/03/10 08:50:37;;;;;;;35.90;15.55;;;6.30;99.90;;;;;;4982514;28;20049;-63
2021/03/10 08:53:04;;;;;;;34.30;15.90;;;6.40;99.90;;;;;;4986901;28;20372;-63
2021/03/10 08:55:29;;;;;;;33.20;15.07;;;6.50;99.90;;;;;;4984760;28;20398;-63
2021/03/10 08:57:58;;;;;;;37.53;17.38;;;6.60;99.90;;;;;;4985580;28;20034;-64
2021/03/10 09:00:26;;;;;;;32.55;14.57;;;6.60;99.90;;;;;;4991009;28;20038;-64
2021/03/10 09:02:53;;;;;;;40.75;16.60;;;6.60;99.90;;;;;;4993202;28;20110;-64
2021/03/10 09:05:27;;;;;;;31.98;15.60;;;6.60;99.90;;;;;;4994028;28;20038;-63
2021/03/10 09:07:53;;;;;;;37.72;15.00;;;6.70;99.90;;;;;;4993050;28;20035;-63
2021/03/10 09:10:21;;;;;;;33.90;14.90;;;6.70;99.90;;;;;;4987222;28;20081;-64
2021/03/10 09:12:49;;;;;;;35.60;14.85;;;6.70;99.90;;;;;;4979141;28;20027;-64
2021/03/10 09:15:20;;;;;;;32.13;13.50;;;6.60;99.90;;;;;;4976546;28;20023;-65
2021/03/10 09:17:46;;;;;;;30.95;13.80;;;6.60;99.90;;;;;;4977068;28;20130;-63
2021/03/10 09:20:32;;;;;;;32.10;13.60;;;6.60;99.90;;;;;;4980066;28;20023;-63
2021/03/10 09:22:59;;;;;;;31.67;13.18;;;6.60;99.90;;;;;;4980958;28;20062;-64
2021/03/10 09:25:33;;;;;;;30.42;13.15;;;6.70;99.90;;;;;;4981282;28;20118;-64
2021/03/10 09:28:03;;;;;;;35.55;14.45;;;6.80;99.90;;;;;;4980992;28;20121;-63
2021/03/10 09:30:30;;;;;;;31.48;13.88;;;6.80;99.90;;;;;;4974700;28;20031;-63
2021/03/10 09:32:57;;;;;;;31.10;13.35;;;6.90;99.90;;;;;;4979903;28;20053;-63
2021/03/10 09:35:30;;;;;;;33.55;13.95;;;6.90;99.90;;;;;;4977182;28;20078;-64
2021/03/10 09:37:59;;;;;;;30.85;13.77;;;7.00;99.90;;;;;;4980593;28;20042;-63
2021/03/10 09:40:42;;;;;;;26.75;12.40;;;7.00;99.90;;;;;;4978374;28;20038;-64
2021/03/10 09:43:19;;;;;;;29.55;12.40;;;7.10;99.90;;;;;;4978855;28;20070;-63
2021/03/10 09:45:47;;;;;;;29.30;13.32;;;7.20;99.90;;;;;;4976845;28;20031;-63
2021/03/10 09:48:18;;;;;;;28.17;12.85;;;7.30;99.90;;;;;;4976191;28;20051;-64
2021/03/10 09:50:48;;;;;;;26.30;12.40;;;7.50;99.90;;;;;;4977211;28;20050;-64
2021/03/10 09:53:25;;;;;;;27.35;12.70;;;7.50;99.90;;;;;;4974932;28;20045;-64
2021/03/10 09:55:52;;;;;;;28.13;12.88;;;7.60;99.90;;;;;;4977769;28;20109;-64
2021/03/10 09:58:17;;;;;;;27.35;12.50;;;7.70;99.90;;;;;;4981159;28;20038;-64
2021/03/10 10:00:44;;;;;;;27.33;12.10;;;7.70;99.90;;;;;;4979856;28;20042;-63
2021/03/10 10:03:24;;;;;;;25.60;10.20;;;7.70;99.90;;;;;;4976283;28;20030;-65
2021/03/10 10:05:49;;;;;;;25.00;11.60;;;7.80;99.90;;;;;;4978324;28;20449;-65
2021/03/10 10:08:15;;;;;;;17.70;9.35;;;7.90;99.90;;;;;;4980509;28;20031;-63
2021/03/10 10:10:42;;;;;;;24.60;10.75;;;7.90;99.90;;;;;;4976086;28;20191;-65
2021/03/10 10:13:07;;;;;;;23.58;10.73;;;8.00;99.90;;;;;;4975872;28;20564;-64
2021/03/10 10:15:33;;;;;;;25.02;11.13;;;8.10;99.90;;;;;;4975281;28;20043;-64
2021/03/10 10:18:03;;;;;;;23.58;10.73;;;8.10;99.90;;;;;;4973269;28;20495;-69
2021/03/10 10:20:32;;;;;;;21.40;9.23;;;8.20;99.90;;;;;;4976232;28;20030;-65
2021/03/10 10:22:57;;;;;;;20.08;9.75;;;8.20;99.90;;;;;;4974412;28;20027;-66
2021/03/10 10:25:23;;;;;;;22.13;8.48;;;8.30;99.90;;;;;;4974207;28;20039;-65
2021/03/10 10:27:50;;;;;;;20.65;8.93;;;8.30;99.90;;;;;;4978354;28;20105;-64
2021/03/10 10:30:18;;;;;;;23.67;9.50;;;8.40;99.90;;;;;;4976900;28;20043;-64
2021/03/10 10:32:49;;;;;;;20.85;8.98;;;8.50;99.90;;;;;;4975232;28;20107;-64
2021/03/10 10:35:15;;;;;;;;;;;8.70;99.90;;;;;;4975676;28;20402;-66
2021/03/10 10:37:42;;;;;;;20.33;9.68;;;8.70;99.90;;;;;;4975787;28;19945;-65
2021/03/10 10:40:10;;;;;;;21.00;8.27;;;8.70;99.90;;;;;;4975124;28;20033;-65
2021/03/10 10:42:35;;;;;;;22.05;9.02;;;8.70;99.90;;;;;;4982225;28;20038;-65
2021/03/10 10:45:02;;;;;;;20.58;8.57;;;8.80;99.90;;;;;;4977019;28;20038;-65
2021/03/10 10:47:28;;;;;;;19.23;8.45;;;8.80;99.90;;;;;;4980679;28;20027;-65
2021/03/10 10:49:53;;;;;;;26.50;8.93;;;8.70;99.90;;;;;;4977734;28;20033;-65
2021/03/10 10:52:20;;;;;;;15.82;7.63;;;8.80;99.90;;;;;;4980470;28;20029;-66
2021/03/10 10:54:46;;;;;;;22.33;9.88;;;8.90;99.90;;;;;;4978178;28;20054;-64
2021/03/10 10:57:11;;;;;;;16.00;7.95;;;8.90;99.90;;;;;;4979459;28;20053;-65
2021/03/10 10:59:37;;;;;;;18.10;7.95;;;9.00;99.90;;;;;;4979250;28;20080;-65
2021/03/10 11:02:03;;;;;;;18.23;7.72;;;9.00;99.90;;;;;;4977405;28;20084;-66
2021/03/10 11:04:29;;;;;;;19.67;8.45;;;9.10;99.90;;;;;;5011182;28;20433;-65
2021/03/10 11:06:54;;;;;;;17.58;7.80;;;9.20;99.90;;;;;;4977240;28;20050;-65
2021/03/10 11:09:20;;;;;;;19.02;8.05;;;9.20;99.90;;;;;;4979192;28;20503;-65
2021/03/10 11:11:46;;;;;;;20.60;9.00;;;9.30;99.90;;;;;;4976479;28;20035;-66
2021/03/10 11:14:11;;;;;;;19.77;8.25;;;9.30;99.90;;;;;;4978141;28;20038;-65
2021/03/10 11:16:37;;;;;;;18.65;8.20;;;9.30;99.90;;;;;;4978790;28;20121;-65
2021/03/10 11:19:02;;;;;;;21.20;8.45;;;9.30;99.90;;;;;;4976152;28;20487;-65
2021/03/10 11:21:29;;;;;;;23.58;9.60;;;9.30;99.90;;;;;;4977592;28;20035;-66
2021/03/10 11:23:54;;;;;;;20.27;9.52;;;9.20;99.90;;;;;;4979790;28;20653;-66
2021/03/10 11:26:20;;;;;;;19.52;8.77;;;9.10;99.90;;;;;;4976034;28;20060;-65
2021/03/10 11:28:46;;;;;;;25.67;8.52;;;9.20;99.90;;;;;;4979870;28;20042;-65
2021/03/10 11:31:11;;;;;;;18.02;8.60;;;9.20;99.90;;;;;;4982598;28;20048;-65
2021/03/10 11:33:38;;;;;;;19.20;8.20;;;9.30;99.90;;;;;;4976824;28;20054;-66
2021/03/10 11:36:05;;;;;;;26.23;8.77;;;9.30;99.90;;;;;;4977049;28;20042;-66
2021/03/10 11:38:31;;;;;;;18.55;7.45;;;9.30;99.90;;;;;;4978822;28;20728;-64
2021/03/10 11:40:57;;;;;;;19.77;8.93;;;9.40;99.90;;;;;;4977413;28;20035;-65
2021/03/10 11:43:22;;;;;;;15.88;7.95;;;9.40;99.90;;;;;;4980075;28;20042;-65
2021/03/10 11:45:48;;;;;;;21.70;8.10;;;9.40;99.90;;;;;;4975979;28;20039;-64
2021/03/10 11:48:14;;;;;;;16.13;7.50;;;9.50;99.90;;;;;;4980922;28;20034;-66
2021/03/10 11:50:40;;;;;;;20.25;8.18;;;9.60;99.90;;;;;;4978258;28;20498;-65
2021/03/10 11:53:06;;;;;;;15.98;7.28;;;9.60;99.90;;;;;;4980266;28;20707;-65
2021/03/10 11:55:32;;;;;;;20.58;8.00;;;9.70;99.90;;;;;;4977654;28;20035;-65
2021/03/10 11:57:58;;;;;;;18.50;9.05;;;9.80;99.90;;;;;;4977450;28;20023;-65
2021/03/10 12:00:24;;;;;;;12.77;6.78;;;9.90;99.90;;;;;;4979119;28;20037;-65
2021/03/10 12:02:51;;;;;;;16.50;8.10;;;10.00;99.90;;;;;;4982182;28;20031;-65
2021/03/10 12:05:17;;;;;;;19.05;8.80;;;10.00;99.90;;;;;;4976172;28;20496;-70
2021/03/10 12:07:42;;;;;;;20.00;8.65;;;10.20;99.90;;;;;;4976506;28;20122;-65
2021/03/10 12:10:09;;;;;;;15.00;6.70;;;10.20;99.90;;;;;;4978827;28;20121;-66
2021/03/10 12:12:34;;;;;;;18.58;7.47;;;10.30;99.90;;;;;;4977313;28;20185;-65
2021/03/10 12:15:00;;;;;;;25.48;7.30;;;10.30;99.90;;;;;;4977644;28;20634;-65
2021/03/10 12:17:25;;;;;;;16.02;7.38;;;10.40;99.90;;;;;;4979004;28;20069;-65
2021/03/10 12:19:51;;;;;;;19.70;8.32;;;10.50;99.90;;;;;;4979324;28;20043;-65
2021/03/10 12:22:16;;;;;;;16.63;8.35;;;10.50;99.90;;;;;;4977543;28;20126;-65
2021/03/10 12:24:45;;;;;;;18.05;8.10;;;10.60;99.90;;;;;;4977056;28;20037;-65
2021/03/10 12:27:11;;;;;;;21.23;8.13;;;10.70;99.90;;;;;;4974668;28;20122;-65
2021/03/10 12:29:36;;;;;;;21.40;8.02;;;10.70;99.90;;;;;;4977241;28;20125;-67
2021/03/10 12:32:03;;;;;;;15.32;6.88;;;10.70;99.90;;;;;;4979703;28;20113;-65
2021/03/10 12:34:29;;;;;;;19.55;8.32;;;10.80;99.90;;;;;;4978201;28;20035;-65
2021/03/10 12:36:55;;;;;;;18.42;8.13;;;10.80;99.90;;;;;;4977709;28;20031;-66
2021/03/10 12:39:20;;;;;;;16.55;6.97;;;10.70;99.90;;;;;;4979653;28;20065;-65
2021/03/10 12:41:46;;;;;;;17.58;7.40;;;10.70;99.90;;;;;;4980711;28;20133;-65
2021/03/10 12:44:11;;;;;;;16.10;7.32;;;10.70;99.90;;;;;;4979190;28;20117;-65
2021/03/10 12:46:37;;;;;;;19.95;8.82;;;10.70;99.90;;;;;;4985173;28;20077;-65